createdAt,value
2023-03-19T00:01:08.652Z,101359.36
2023-03-19T00:03:44.749Z,101357.13
2023-03-19T00:06:13.477Z,101351.67
2023-03-19T00:08:42.266Z,101349.42
2023-03-19T00:11:12.692Z,101348.33
2023-03-19T00:13:41.071Z,101345.41
2023-03-19T00:16:09.536Z,101343.35
2023-03-19T00:18:38.690Z,101336.92
2023-03-19T00:21:08.052Z,101337.90
2023-03-19T00:23:36.937Z,101335.86
2023-03-19T00:26:05.503Z,101333.11
2023-03-19T00:28:34.010Z,101332.09
2023-03-19T00:31:16.713Z,101330.40
2023-03-19T00:33:45.410Z,101331.10
2023-03-19T00:36:14.167Z,101326.52
2023-03-19T00:38:43.965Z,101324.45
2023-03-19T00:41:13.106Z,101322.29
2023-03-19T00:43:41.691Z,101322.21
2023-03-19T00:46:10.035Z,101322.36
2023-03-19T00:48:38.449Z,101322.05
2023-03-19T00:51:09.802Z,101322.32
2023-03-19T00:53:43.995Z,101319.65
2023-03-19T00:56:14.247Z,101320.13
2023-03-19T00:58:42.423Z,101315.14
2023-03-19T01:01:14.170Z,101315.58
2023-03-19T01:03:45.233Z,101317.55
2023-03-19T01:06:14.103Z,101321.08
2023-03-19T01:08:42.786Z,101318.44
2023-03-19T01:11:14.678Z,101317.47
2023-03-19T01:13:43.229Z,101312.67
2023-03-19T01:16:11.657Z,101310.80
2023-03-19T01:18:39.885Z,101316.23
2023-03-19T01:21:08.585Z,101316.88
2023-03-19T01:23:43.297Z,101315.51
2023-03-19T01:26:13.211Z,101315.33
2023-03-19T01:28:41.707Z,101313.43
2023-03-19T01:31:10.765Z,101312.33
2023-03-19T01:33:47.949Z,101306.48
2023-03-19T01:36:28.435Z,101308.67
2023-03-19T01:39:07.777Z,101305.27
2023-03-19T01:41:37.012Z,101305.09
2023-03-19T01:44:31.502Z,101303.36
2023-03-19T01:47:25.224Z,101303.23
2023-03-19T01:50:43.488Z,101308.24
2023-03-19T01:53:54.111Z,101316.13
2023-03-19T01:56:40.062Z,101318.85
2023-03-19T01:59:26.883Z,101318.89
2023-03-19T02:02:29.438Z,101317.02
2023-03-19T02:05:02.645Z,101314.17
2023-03-19T02:07:34.430Z,101313.33
2023-03-19T02:10:07.527Z,101315.80
2023-03-19T02:12:38.211Z,101317.40
2023-03-19T02:15:07.935Z,101314.03
2023-03-19T02:17:36.912Z,101314.57
2023-03-19T02:20:20.751Z,101317.23
2023-03-19T02:23:04.337Z,101313.70
2023-03-19T02:26:00.525Z,101314.53
2023-03-19T02:28:30.641Z,101314.08
2023-03-19T02:30:58.801Z,101313.88
2023-03-19T02:33:28.009Z,101322.98
2023-03-19T02:35:58.047Z,101315.25
2023-03-19T02:38:27.842Z,101315.81
2023-03-19T02:41:02.534Z,101310.83
2023-03-19T02:43:33.507Z,101317.39
2023-03-19T02:46:04.513Z,101315.45
2023-03-19T02:48:33.276Z,101315.89
2023-03-19T02:51:01.839Z,101314.63
2023-03-19T02:53:30.510Z,101317.41
2023-03-19T02:55:58.901Z,101310.75
2023-03-19T02:58:27.366Z,101311.47
2023-03-19T03:00:55.991Z,101307.23
2023-03-19T03:03:24.241Z,101311.15
2023-03-19T03:05:52.613Z,101308.23
2023-03-19T03:08:20.889Z,101311.89
2023-03-19T03:10:49.587Z,101311.11
2023-03-19T03:13:20.720Z,101314.13
2023-03-19T03:15:48.997Z,101316.27
2023-03-19T03:18:17.487Z,101316.81
2023-03-19T03:20:45.979Z,101319.88
2023-03-19T03:23:14.659Z,101321.57
2023-03-19T03:25:42.998Z,101323.08
2023-03-19T03:28:12.366Z,101321.30
2023-03-19T03:30:40.613Z,101320.05
2023-03-19T03:33:08.953Z,101317.79
2023-03-19T03:35:37.488Z,101312.99
2023-03-19T03:38:07.596Z,101310.22
2023-03-19T03:40:36.871Z,101310.44
2023-03-19T03:43:05.578Z,101309.98
2023-03-19T03:45:35.616Z,101307.76
2023-03-19T03:48:04.506Z,101309.91
2023-03-19T03:50:33.243Z,101309.48
2023-03-19T03:53:05.952Z,101307.88
2023-03-19T03:55:34.737Z,101307.27
2023-03-19T03:58:03.331Z,101307.92
2023-03-19T04:00:31.766Z,101308.67
2023-03-19T04:03:00.619Z,101307.90
2023-03-19T04:05:29.075Z,101309.09
2023-03-19T04:07:57.362Z,101309.98
2023-03-19T04:10:26.758Z,101309.54
2023-03-19T04:12:55.039Z,101313.59
2023-03-19T04:15:23.618Z,101306.37
2023-03-19T04:17:52.818Z,101311.17
2023-03-19T04:20:23.777Z,101309.80
2023-03-19T04:22:52.133Z,101310.09
2023-03-19T04:25:20.715Z,101313.63
2023-03-19T04:27:49.819Z,101321.11
2023-03-19T04:30:19.217Z,101324.02
2023-03-19T04:32:47.873Z,101327.25
2023-03-19T04:35:18.449Z,101327.95
2023-03-19T04:37:48.896Z,101327.21
2023-03-19T04:40:18.686Z,101327.64
2023-03-19T04:42:47.671Z,101326.85
2023-03-19T04:45:27.280Z,101330.43
2023-03-19T04:47:56.402Z,101325.54
2023-03-19T04:50:28.364Z,101331.27
2023-03-19T04:52:56.849Z,101330.27
2023-03-19T04:55:25.027Z,101329.33
2023-03-19T04:58:01.477Z,101332.49
2023-03-19T05:00:31.726Z,101338.92
2023-03-19T05:03:01.635Z,101333.11
2023-03-19T05:05:31.750Z,101337.27
2023-03-19T05:08:00.435Z,101342.42
2023-03-19T05:10:29.226Z,101348.45
2023-03-19T05:12:58.214Z,101346.15
2023-03-19T05:15:29.678Z,101348.38
2023-03-19T05:18:02.248Z,101350.90
2023-03-19T05:20:42.822Z,101350.48
2023-03-19T05:23:18.771Z,101345.88
2023-03-19T05:25:53.086Z,101348.98
2023-03-19T05:28:25.361Z,101354.52
2023-03-19T05:30:53.963Z,101347.96
2023-03-19T05:33:27.135Z,101347.63
2023-03-19T05:35:58.211Z,101342.98
2023-03-19T05:38:43.058Z,101345.36
2023-03-19T05:41:14.917Z,101347.49
2023-03-19T05:43:55.261Z,101347.90
2023-03-19T05:46:39.352Z,101353.12
2023-03-19T05:49:08.725Z,101348.36
2023-03-19T05:51:36.985Z,101343.84
2023-03-19T05:54:07.908Z,101345.55
2023-03-19T05:56:55.657Z,101343.04
2023-03-19T05:59:36.732Z,101344.27
2023-03-19T06:02:24.081Z,101342.38
2023-03-19T06:04:54.071Z,101346.42
2023-03-19T06:07:25.429Z,101348.17
2023-03-19T06:09:55.643Z,101350.61
2023-03-19T06:12:25.046Z,101356.77
2023-03-19T06:15:20.259Z,101357.73
2023-03-19T06:17:48.842Z,101358.82
2023-03-19T06:20:19.172Z,101360.33
2023-03-19T06:22:47.949Z,101362.02
2023-03-19T06:25:16.226Z,101359.29
2023-03-19T06:27:44.507Z,101364.96
2023-03-19T06:30:36.224Z,101367.27
2023-03-19T06:33:06.797Z,101362.20
2023-03-19T06:35:38.545Z,101360.99
2023-03-19T06:38:07.618Z,101364.30
2023-03-19T06:40:36.288Z,101361.80
2023-03-19T06:43:04.795Z,101363.56
2023-03-19T06:45:33.017Z,101358.98
2023-03-19T06:48:02.285Z,101360.27
2023-03-19T06:50:30.745Z,101364.62
2023-03-19T06:52:59.227Z,101367.64
2023-03-19T06:55:27.607Z,101359.73
2023-03-19T06:57:56.087Z,101362.99
2023-03-19T07:00:27.739Z,101366.64
2023-03-19T07:02:55.925Z,101366.20
2023-03-19T07:05:24.093Z,101367.86
2023-03-19T07:07:52.376Z,101368.77
2023-03-19T07:10:21.761Z,101371.41
2023-03-19T07:12:49.945Z,101372.95
2023-03-19T07:15:20.479Z,101377.75
2023-03-19T07:17:49.726Z,101374.98
2023-03-19T07:20:18.051Z,101374.55
2023-03-19T07:22:46.123Z,101374.16
2023-03-19T07:25:14.510Z,101375.86
2023-03-19T07:27:42.781Z,101371.34
2023-03-19T07:30:12.392Z,101370.71
2023-03-19T07:32:41.250Z,101371.23
2023-03-19T07:35:10.758Z,101369.05
2023-03-19T07:37:38.961Z,101364.15
2023-03-19T07:40:08.474Z,101365.53
2023-03-19T07:42:36.653Z,101364.26
2023-03-19T07:45:06.177Z,101360.42
2023-03-19T07:47:34.729Z,101362.40
2023-03-19T07:50:03.002Z,101361.92
2023-03-19T07:52:31.623Z,101359.26
2023-03-19T07:54:59.970Z,101362.60
2023-03-19T07:57:28.247Z,101357.80
2023-03-19T07:59:56.518Z,101363.13
2023-03-19T08:02:24.822Z,101362.17
2023-03-19T08:04:53.450Z,101365.39
2023-03-19T08:07:21.862Z,101355.81
2023-03-19T08:09:50.033Z,101356.28
2023-03-19T08:12:18.521Z,101357.85
2023-03-19T08:14:46.692Z,101362.08
2023-03-19T08:17:14.969Z,101355.19
2023-03-19T08:19:43.863Z,101356.59
2023-03-19T08:22:12.857Z,101354.82
2023-03-19T08:24:41.128Z,101353.49
2023-03-19T08:27:09.715Z,101354.88
2023-03-19T08:29:37.889Z,101346.02
2023-03-19T08:32:06.683Z,101347.94
2023-03-19T08:34:34.744Z,101348.98
2023-03-19T08:37:02.762Z,101339.91
2023-03-19T08:39:30.893Z,101336.11
2023-03-19T08:41:59.142Z,101334.02
2023-03-19T08:44:27.951Z,101331.46
2023-03-19T08:46:56.574Z,101328.21
2023-03-19T08:49:25.425Z,101322.42
2023-03-19T08:51:53.563Z,101312.63
2023-03-19T08:54:23.021Z,101311.76
2023-03-19T08:56:51.486Z,101310.23
2023-03-19T08:59:19.672Z,101303.66
2023-03-19T09:01:54.937Z,101303.22
2023-03-19T09:04:23.301Z,101303.37
2023-03-19T09:06:51.733Z,101301.48
2023-03-19T09:09:21.676Z,101298.77
2023-03-19T09:11:50.056Z,101297.52
2023-03-19T09:14:20.273Z,101302.50
2023-03-19T09:16:48.666Z,101296.80
2023-03-19T09:19:17.476Z,101289.88
2023-03-19T09:21:46.459Z,101292.05
2023-03-19T09:24:14.648Z,101293.05
2023-03-19T09:26:43.048Z,101287.61
2023-03-19T09:29:11.168Z,101283.90
2023-03-19T09:31:39.942Z,101284.54
2023-03-19T09:34:09.048Z,101277.60
2023-03-19T09:36:38.012Z,101271.83
2023-03-19T09:39:07.661Z,101267.37
2023-03-19T09:42:00.012Z,101266.48
2023-03-19T09:44:31.268Z,101270.29
2023-03-19T09:47:17.233Z,101270.15
2023-03-19T09:49:51.140Z,101262.48
2023-03-19T09:52:30.582Z,101259.80
2023-03-19T09:55:12.743Z,101257.66
2023-03-19T09:57:40.882Z,101259.55
2023-03-19T10:00:22.896Z,101256.73
2023-03-19T10:03:03.678Z,101245.70
2023-03-19T10:05:52.177Z,101241.15
2023-03-19T10:08:49.650Z,101240.65
2023-03-19T10:11:24.877Z,101239.20
2023-03-19T10:14:30.110Z,101232.16
2023-03-19T10:17:01.370Z,101231.89
2023-03-19T10:19:41.992Z,101226.80
2023-03-19T10:22:20.749Z,101218.21
2023-03-19T10:24:58.763Z,101216.71
2023-03-19T10:27:29.407Z,101209.05
2023-03-19T10:29:57.628Z,101206.43
2023-03-19T10:32:40.553Z,101210.45
2023-03-19T10:35:43.904Z,101204.10
2023-03-19T10:38:26.718Z,101201.20
2023-03-19T10:41:06.269Z,101197.52
2023-03-19T10:43:36.538Z,101191.81
2023-03-19T10:46:04.854Z,101184.02
2023-03-19T10:48:34.981Z,101183.56
2023-03-19T10:51:06.733Z,101182.33
2023-03-19T10:53:37.745Z,101177.86
2023-03-19T10:56:30.354Z,101172.93
2023-03-19T10:59:21.452Z,101168.39
2023-03-19T11:01:50.021Z,101164.54
2023-03-19T11:04:22.125Z,101165.91
2023-03-19T11:06:53.953Z,101161.19
2023-03-19T11:09:44.755Z,101161.83
2023-03-19T11:12:19.465Z,101152.42
2023-03-19T11:14:51.673Z,101149.02
2023-03-19T11:17:38.992Z,101146.74
2023-03-19T11:20:39.391Z,101140.48
2023-03-19T11:23:15.795Z,101138.69
2023-03-19T11:25:52.056Z,101129.84
2023-03-19T11:28:26.312Z,101125.06
2023-03-19T11:31:21.764Z,101126.44
2023-03-19T11:34:20.459Z,101121.14
2023-03-19T11:37:03.674Z,101119.60
2023-03-19T11:39:56.176Z,101112.46
2023-03-19T11:42:35.961Z,101104.95
2023-03-19T11:45:13.493Z,101102.69
2023-03-19T11:47:53.103Z,101094.27
2023-03-19T11:50:38.653Z,101089.25
2023-03-19T11:53:31.860Z,101083.31
2023-03-19T11:56:29.979Z,101078.03
2023-03-19T11:59:17.690Z,101074.61
2023-03-19T12:02:04.843Z,101073.50
2023-03-19T12:04:54.453Z,101073.16
2023-03-19T12:07:35.843Z,101068.89
2023-03-19T12:10:32.724Z,101074.96
2023-03-19T12:13:04.505Z,101075.56
2023-03-19T12:15:50.244Z,101075.08
2023-03-19T12:18:21.172Z,101069.44
2023-03-19T12:21:01.426Z,101067.98
2023-03-19T12:23:51.513Z,101063.88
2023-03-19T12:26:33.101Z,101059.50
2023-03-19T12:29:19.528Z,101056.47
2023-03-19T12:32:07.581Z,101057.15
2023-03-19T12:34:49.291Z,101051.70
2023-03-19T12:37:24.482Z,101044.92
2023-03-19T12:40:02.120Z,101036.66
2023-03-19T12:42:37.796Z,101031.89
2023-03-19T12:45:20.020Z,101026.66
2023-03-19T12:47:49.528Z,101026.97
2023-03-19T12:50:19.898Z,101026.88
2023-03-19T12:52:53.568Z,101026.20
2023-03-19T12:55:25.573Z,101013.75
2023-03-19T12:58:24.327Z,101011.27
2023-03-19T13:01:09.188Z,101005.49
2023-03-19T13:04:05.818Z,101002.73
2023-03-19T13:06:59.489Z,101002.13
2023-03-19T13:09:31.463Z,101001.02
2023-03-19T13:12:10.667Z,100998.58
2023-03-19T13:15:07.451Z,100995.95
2023-03-19T13:18:00.285Z,100987.24
2023-03-19T13:20:48.739Z,100981.67
2023-03-19T13:23:32.688Z,100983.28
2023-03-19T13:26:04.904Z,100988.83
2023-03-19T13:28:36.724Z,100979.17
2023-03-19T13:31:07.179Z,100981.96
2023-03-19T13:33:38.866Z,100975.52
2023-03-19T13:36:14.619Z,100972.63
2023-03-19T13:38:51.728Z,100965.34
2023-03-19T13:41:35.575Z,100961.73
2023-03-19T13:44:22.314Z,100957.96
2023-03-19T13:46:51.505Z,100960.37
2023-03-19T13:49:19.660Z,100954.37
2023-03-19T13:51:49.263Z,100946.73
2023-03-19T13:54:32.537Z,100942.39
2023-03-19T13:57:01.629Z,100941.44
2023-03-19T13:59:31.410Z,100934.33
2023-03-19T14:02:01.747Z,100931.46
2023-03-19T14:04:30.927Z,100928.56
2023-03-19T14:07:42.509Z,100922.77
2023-03-19T14:10:23.077Z,100925.84
2023-03-19T14:13:01.404Z,100926.60
2023-03-19T14:15:30.943Z,100922.22
2023-03-19T14:18:04.714Z,100923.90
2023-03-19T14:20:47.854Z,100921.85
2023-03-19T14:23:36.098Z,100922.58
2023-03-19T14:26:23.083Z,100915.84
2023-03-19T14:29:02.680Z,100916.25
2023-03-19T14:31:34.075Z,100914.36
2023-03-19T14:34:17.214Z,100917.96
2023-03-19T14:37:03.621Z,100920.08
2023-03-19T14:39:43.635Z,100917.45
2023-03-19T14:42:33.645Z,100919.23
2023-03-19T14:45:08.678Z,100922.66
2023-03-19T14:47:42.897Z,100922.05
2023-03-19T14:50:34.392Z,100920.59
2023-03-19T14:53:19.492Z,100917.85
2023-03-19T14:55:52.065Z,100917.05
2023-03-19T14:58:21.611Z,100911.79
2023-03-19T15:00:53.896Z,100914.92
2023-03-19T15:03:24.580Z,100918.27
2023-03-19T15:05:58.958Z,100913.83
2023-03-19T15:33:32.946Z,100911.24
2023-03-19T15:36:16.518Z,100908.98
2023-03-19T15:39:07.830Z,100911.19
2023-03-19T15:41:41.434Z,100907.42
2023-03-19T15:44:16.977Z,100905.95
2023-03-19T15:46:47.409Z,100909.42
2023-03-19T15:49:26.382Z,100910.73
2023-03-19T15:52:02.510Z,100912.84
2023-03-19T15:54:32.717Z,100910.86
2023-03-19T15:57:02.237Z,100913.55
2023-03-19T15:59:31.937Z,100915.58
2023-03-19T16:02:01.996Z,100916.34
2023-03-19T16:04:38.471Z,100922.27
2023-03-19T16:07:45.720Z,100924.41
2023-03-19T16:10:28.992Z,100926.35
2023-03-19T16:12:57.434Z,100930.98
2023-03-19T16:15:43.985Z,100931.42
2023-03-19T16:18:18.355Z,100931.61
2023-03-19T16:20:59.525Z,100931.63
2023-03-19T16:23:37.126Z,100929.17
2023-03-19T16:26:20.361Z,100930.73
2023-03-19T16:29:22.937Z,100933.11
2023-03-19T16:32:04.354Z,100931.48
2023-03-19T16:34:49.397Z,100934.48
2023-03-19T16:37:26.875Z,100937.66
2023-03-19T16:39:56.584Z,100941.41
2023-03-19T16:42:34.073Z,100945.02
2023-03-19T16:45:17.529Z,100943.48
2023-03-19T16:47:48.059Z,100939.65
2023-03-19T16:50:17.802Z,100945.75
2023-03-19T16:52:47.863Z,100947.23
2023-03-19T16:55:24.741Z,100950.88
2023-03-19T16:58:02.039Z,100952.89
2023-03-19T17:00:32.613Z,100951.55
2023-03-19T17:03:01.684Z,100951.74
2023-03-19T17:05:30.746Z,100951.52
2023-03-19T17:07:59.145Z,100950.13
2023-03-19T17:10:31.974Z,100949.70
2023-03-19T17:13:01.218Z,100952.42
2023-03-19T17:15:39.060Z,100955.04
2023-03-19T17:18:18.517Z,100960.20
2023-03-19T17:21:12.041Z,100959.92
2023-03-19T17:23:41.107Z,100964.60
2023-03-19T17:26:20.362Z,100964.43
2023-03-19T17:28:49.561Z,100966.06
2023-03-19T17:31:24.188Z,100965.57
2023-03-19T17:34:02.178Z,100971.14
2023-03-19T17:36:31.176Z,100975.79
2023-03-19T17:38:59.656Z,100979.81
2023-03-19T17:41:30.471Z,100979.14
2023-03-19T17:43:59.590Z,100975.95
2023-03-19T17:46:29.042Z,100981.88
2023-03-19T17:48:57.768Z,100979.28
2023-03-19T17:51:26.366Z,100978.09
2023-03-19T17:53:55.800Z,100978.11
2023-03-19T17:56:26.234Z,100980.69
2023-03-19T17:58:54.586Z,100974.69
2023-03-19T18:01:27.850Z,100975.25
2023-03-19T18:03:59.250Z,100975.83
2023-03-19T18:06:34.107Z,100974.56
2023-03-19T18:09:03.267Z,100974.92
2023-03-19T18:11:31.752Z,100977.38
2023-03-19T18:14:00.008Z,100977.95
2023-03-19T18:16:31.838Z,100977.67
2023-03-19T18:19:02.816Z,100975.99
2023-03-19T18:21:31.702Z,100980.04
2023-03-19T18:24:01.660Z,100981.02
2023-03-19T18:26:30.203Z,100984.35
2023-03-19T18:28:58.481Z,100986.15
2023-03-19T18:31:27.196Z,100986.53
2023-03-19T18:33:58.739Z,100986.71
2023-03-19T18:36:31.363Z,100988.60
2023-03-19T18:39:00.103Z,100987.90
2023-03-19T18:41:29.372Z,100983.11
2023-03-19T18:44:08.116Z,100987.63
2023-03-19T18:46:38.374Z,100981.34
2023-03-19T18:49:26.696Z,100983.77
2023-03-19T18:52:04.818Z,100988.14
2023-03-19T18:54:33.340Z,100981.70
2023-03-19T18:57:02.365Z,100982.72
2023-03-19T18:59:33.350Z,100982.13
2023-03-19T19:02:03.740Z,100988.02
2023-03-19T19:04:32.258Z,100993.86
2023-03-19T19:07:01.881Z,100994.37
2023-03-19T19:09:30.605Z,100994.82
2023-03-19T19:12:01.048Z,100996.52
2023-03-19T19:14:29.869Z,100992.77
2023-03-19T19:16:58.343Z,100990.98
2023-03-19T19:19:27.902Z,100993.13
2023-03-19T19:21:56.182Z,100989.83
2023-03-19T19:24:24.733Z,100988.67
2023-03-19T19:26:54.464Z,100988.15
2023-03-19T19:29:23.057Z,100988.58
2023-03-19T19:31:52.739Z,100986.84
2023-03-19T19:34:22.176Z,100990.05
2023-03-19T19:36:51.307Z,100989.09
2023-03-19T19:39:19.802Z,100991.42
2023-03-19T19:41:48.440Z,100992.05
2023-03-19T19:44:22.357Z,100990.71
2023-03-19T19:46:53.449Z,100989.32
2023-03-19T19:49:22.602Z,100994.45
2023-03-19T19:51:51.184Z,100992.48
2023-03-19T19:54:19.552Z,100994.14
2023-03-19T19:56:48.447Z,100992.33
2023-03-19T19:59:17.232Z,100997.58
2023-03-19T20:01:46.401Z,100998.14
2023-03-19T20:04:15.228Z,101000.33
2023-03-19T20:06:43.501Z,100999.02
2023-03-19T20:09:11.680Z,100997.95
2023-03-19T20:11:39.956Z,100994.12
2023-03-19T20:14:13.852Z,100994.52
2023-03-19T20:16:42.569Z,100993.73
2023-03-19T20:19:18.117Z,100995.05
2023-03-19T20:21:46.878Z,100992.85
2023-03-19T20:24:15.254Z,100993.58
2023-03-19T20:26:43.736Z,100992.29
2023-03-19T20:29:16.143Z,100993.80
2023-03-19T20:31:46.611Z,100993.73
2023-03-19T20:34:28.784Z,100996.33
2023-03-19T20:37:01.117Z,100994.93
2023-03-19T20:39:29.622Z,100993.47
2023-03-19T20:41:58.087Z,100994.39
2023-03-19T20:44:26.380Z,100996.28
2023-03-19T20:46:54.636Z,101002.71
2023-03-19T20:49:23.108Z,101001.21
2023-03-19T20:51:51.588Z,101001.98
2023-03-19T20:54:19.866Z,101000.47
2023-03-19T20:56:48.862Z,100999.89
2023-03-19T20:59:17.444Z,100999.85
2023-03-19T21:01:45.971Z,101002.23
2023-03-19T21:04:19.646Z,100997.14
2023-03-19T21:06:53.436Z,101001.91
2023-03-19T21:09:24.885Z,100995.66
2023-03-19T21:11:53.567Z,100996.02
2023-03-19T21:14:23.655Z,100992.69
2023-03-19T21:16:52.075Z,100991.48
2023-03-19T21:19:20.553Z,100992.02
2023-03-19T21:21:48.738Z,100987.30
2023-03-19T21:24:21.038Z,100985.98
2023-03-19T21:26:49.502Z,100985.13
2023-03-19T21:29:29.432Z,100979.08
2023-03-19T21:31:58.037Z,100977.48
2023-03-19T21:34:26.501Z,100972.67
2023-03-19T21:36:55.120Z,100970.30
2023-03-19T21:39:23.258Z,100969.58
2023-03-19T21:41:51.429Z,100967.05
2023-03-19T21:44:22.825Z,100962.75
2023-03-19T21:46:51.612Z,100962.63
2023-03-19T21:49:20.283Z,100956.75
2023-03-19T21:51:50.090Z,100958.21
2023-03-19T21:54:18.855Z,100963.52
2023-03-19T21:56:47.443Z,100965.83
2023-03-19T21:59:19.142Z,100968.36
2023-03-19T22:01:47.550Z,100969.70
2023-03-19T22:04:16.027Z,100968.12
2023-03-19T22:06:44.234Z,100965.08
2023-03-19T22:09:13.338Z,100970.08
2023-03-19T22:11:42.732Z,100970.06
2023-03-19T22:14:24.844Z,100972.10
2023-03-19T22:16:56.122Z,100979.26
2023-03-19T22:19:24.867Z,100984.42
2023-03-19T22:21:53.660Z,100984.93
2023-03-19T22:24:22.246Z,100982.98
2023-03-19T22:26:56.616Z,100980.46
2023-03-19T22:29:25.890Z,100982.41
2023-03-19T22:31:56.375Z,100979.73
2023-03-19T22:34:28.099Z,100978.63
2023-03-19T22:36:56.839Z,100978.11
2023-03-19T22:39:25.419Z,100976.23
2023-03-19T22:41:53.800Z,100978.08
2023-03-19T22:44:30.586Z,100974.86
2023-03-19T22:47:01.089Z,100977.72
2023-03-19T22:49:30.104Z,100983.08
2023-03-19T22:51:58.701Z,100983.63
2023-03-19T22:54:26.859Z,100980.26
2023-03-19T22:56:55.545Z,100979.42
2023-03-19T22:59:23.849Z,100978.42
2023-03-19T23:01:52.324Z,100981.93
2023-03-19T23:04:31.238Z,100976.77
2023-03-19T23:07:01.272Z,100973.45
2023-03-19T23:09:32.371Z,100974.13
2023-03-19T23:12:02.528Z,100972.02
2023-03-19T23:14:32.312Z,100970.88
2023-03-19T23:17:04.056Z,100967.88
2023-03-19T23:19:35.332Z,100963.08
2023-03-19T23:22:05.938Z,100962.48
2023-03-19T23:24:34.178Z,100960.10
2023-03-19T23:27:03.928Z,100960.95
2023-03-19T23:29:36.132Z,100953.60
2023-03-19T23:32:05.103Z,100953.19
2023-03-19T23:34:39.764Z,100949.50
2023-03-19T23:37:14.262Z,100947.30
2023-03-19T23:39:43.047Z,100948.17
2023-03-19T23:42:17.979Z,100945.98
2023-03-19T23:44:46.660Z,100949.17
2023-03-19T23:47:15.688Z,100951.44
2023-03-19T23:49:44.852Z,100954.39
2023-03-19T23:52:14.181Z,100953.85
2023-03-19T23:54:42.742Z,100955.76
2023-03-19T23:57:15.779Z,100949.95
2023-03-19T23:59:48.218Z,100945.00
